Ana Sayfa
METAR-TAF:

METAR-TAF

Havaalanları :

Mount Pleasant Regional Airport

Mount Pleasant, Teksas, Amerika Birleşik Devletleri

Enlem: 33-05-43N, Boylam: 094-57-41W, yükseklik: 111 m

Güncel hava durumu gözlemi

Rapor saat 02:35 UTC de 23 dakika önce yapıldı.
Rüzgar güneydan 3 kt
Sıcaklık 8°C
Nem 49%
Basınç 1025 hPa
Görüş mesafesi: 16.1 km
Açık gökyüzü

METAR: KOSA 280235Z AUTO 17003KT 10SM CLR 08/M02 A3028 RMK AO1 T00771024

Saat: 20:58 (02:58 UTC)


TAF: eksik

4.000'den fazla havaalanı için hava durumu gözlemleri ve tahminleri (METAR ve TAF raporları).

Kullanılabilir istasyonlar harita üzerinde sarı ve kırmızı noktalarla gösterilir.

İstasyonun adını görmek için fareyi noktanın üzerinde gezdirin.

Sonrasında hava gözlem ve tahminlerini görmek için tıklayın.

Haritayı değiştirmek için: yaklaştırmak için siyah artı işaretli yeşil düğmeye ve uzaklaştırmak için de eksi işaretli düğmeye hızla tıklayın; bitişik haritalar için yeşil okları kullanın.


METAR-TAF: